sensor_id;sensor_type;location;lat;lon;timestamp;P1;P2;P0
54587;PMS7003;40484;50.198;19.576;2023-02-23T00:03:13;7;7;5
54587;PMS7003;40484;50.198;19.576;2023-02-23T00:08:14;11;11;8
54587;PMS7003;40484;50.198;19.576;2023-02-23T00:13:16;12;11;7
54587;PMS7003;40484;50.198;19.576;2023-02-23T00:18:18;11;11;7
54587;PMS7003;40484;50.198;19.576;2023-02-23T00:23:20;6;5;2
54587;PMS7003;40484;50.198;19.576;2023-02-23T00:28:22;16;13;8
54587;PMS7003;40484;50.198;19.576;2023-02-23T00:33:23;11;10;8
54587;PMS7003;40484;50.198;19.576;2023-02-23T00:38:25;9;8;7
54587;PMS7003;40484;50.198;19.576;2023-02-23T00:43:26;11;11;8
54587;PMS7003;40484;50.198;19.576;2023-02-23T00:48:28;11;8;6
54587;PMS7003;40484;50.198;19.576;2023-02-23T00:53:29;10;8;6
54587;PMS7003;40484;50.198;19.576;2023-02-23T00:58:31;8;8;6
54587;PMS7003;40484;50.198;19.576;2023-02-23T01:03:33;9;8;6
54587;PMS7003;40484;50.198;19.576;2023-02-23T01:08:35;10;9;6
54587;PMS7003;40484;50.198;19.576;2023-02-23T01:13:39;11;10;7
54587;PMS7003;40484;50.198;19.576;2023-02-23T01:18:42;11;10;8
54587;PMS7003;40484;50.198;19.576;2023-02-23T01:23:44;13;12;8
54587;PMS7003;40484;50.198;19.576;2023-02-23T01:29:14;11;10;8
54587;PMS7003;40484;50.198;19.576;2023-02-23T01:34:16;12;11;8
54587;PMS7003;40484;50.198;19.576;2023-02-23T01:39:19;14;13;10
54587;PMS7003;40484;50.198;19.576;2023-02-23T01:49:28;14;13;9
54587;PMS7003;40484;50.198;19.576;2023-02-23T01:54:29;19;14;10
54587;PMS7003;40484;50.198;19.576;2023-02-23T01:59:42;15;12;9
54587;PMS7003;40484;50.198;19.576;2023-02-23T02:04:41;14;12;9
54587;PMS7003;40484;50.198;19.576;2023-02-23T02:09:47;15;11;9
54587;PMS7003;40484;50.198;19.576;2023-02-23T02:15:13;15;12;8
54587;PMS7003;40484;50.198;19.576;2023-02-23T02:26:28;16;13;10
54587;PMS7003;40484;50.198;19.576;2023-02-23T02:37:03;17;16;11
54587;PMS7003;40484;50.198;19.576;2023-02-23T02:42:12;14;14;11
54587;PMS7003;40484;50.198;19.576;2023-02-23T02:47:25;20;18;11
54587;PMS7003;40484;50.198;19.576;2023-02-23T02:57:52;15;14;10
54587;PMS7003;40484;50.198;19.576;2023-02-23T03:09:23;15;15;10
54587;PMS7003;40484;50.198;19.576;2023-02-23T03:15:12;18;16;11
54587;PMS7003;40484;50.198;19.576;2023-02-23T03:21:18;15;13;10
54587;PMS7003;40484;50.198;19.576;2023-02-23T03:27:21;14;13;9
54587;PMS7003;40484;50.198;19.576;2023-02-23T03:33:05;17;15;10
54587;PMS7003;40484;50.198;19.576;2023-02-23T03:44:56;17;16;12
54587;PMS7003;40484;50.198;19.576;2023-02-23T03:50:42;18;17;11
54587;PMS7003;40484;50.198;19.576;2023-02-23T03:56:47;18;18;12
54587;PMS7003;40484;50.198;19.576;2023-02-23T04:02:28;14;14;9
54587;PMS7003;40484;50.198;19.576;2023-02-23T04:08:11;15;14;10
54587;PMS7003;40484;50.198;19.576;2023-02-23T04:14:19;13;13;10
54587;PMS7003;40484;50.198;19.576;2023-02-23T04:19:50;17;17;11
54587;PMS7003;40484;50.198;19.576;2023-02-23T04:24:53;17;16;11
54587;PMS7003;40484;50.198;19.576;2023-02-23T04:29:54;15;14;11
54587;PMS7003;40484;50.198;19.576;2023-02-23T04:34:55;21;16;13
54587;PMS7003;40484;50.198;19.576;2023-02-23T04:39:57;15;14;10
54587;PMS7003;40484;50.198;19.576;2023-02-23T04:44:58;20;20;14
54587;PMS7003;40484;50.198;19.576;2023-02-23T04:50:00;13;12;11
54587;PMS7003;40484;50.198;19.576;2023-02-23T04:55:02;16;15;10
54587;PMS7003;40484;50.198;19.576;2023-02-23T05:00:04;17;14;11
54587;PMS7003;40484;50.198;19.576;2023-02-23T05:05:07;17;15;12
54587;PMS7003;40484;50.198;19.576;2023-02-23T05:10:09;15;14;11
54587;PMS7003;40484;50.198;19.576;2023-02-23T05:15:11;16;14;10
54587;PMS7003;40484;50.198;19.576;2023-02-23T05:20:12;17;17;11
54587;PMS7003;40484;50.198;19.576;2023-02-23T05:25:14;13;13;10
54587;PMS7003;40484;50.198;19.576;2023-02-23T05:30:43;22;16;11
54587;PMS7003;40484;50.198;19.576;2023-02-23T05:35:44;15;15;11
54587;PMS7003;40484;50.198;19.576;2023-02-23T05:40:46;20;16;12
54587;PMS7003;40484;50.198;19.576;2023-02-23T05:45:47;14;12;10
54587;PMS7003;40484;50.198;19.576;2023-02-23T05:50:49;21;18;11
54587;PMS7003;40484;50.198;19.576;2023-02-23T05:55:50;18;17;12
54587;PMS7003;40484;50.198;19.576;2023-02-23T06:00:52;18;17;12
54587;PMS7003;40484;50.198;19.576;2023-02-23T06:05:55;20;17;11
54587;PMS7003;40484;50.198;19.576;2023-02-23T06:10:58;16;16;11
54587;PMS7003;40484;50.198;19.576;2023-02-23T06:15:59;17;16;12
54587;PMS7003;40484;50.198;19.576;2023-02-23T06:21:02;20;19;12
54587;PMS7003;40484;50.198;19.576;2023-02-23T06:26:03;14;14;11
54587;PMS7003;40484;50.198;19.576;2023-02-23T06:31:05;18;16;12
54587;PMS7003;40484;50.198;19.576;2023-02-23T06:36:07;29;26;16
54587;PMS7003;40484;50.198;19.576;2023-02-23T06:41:10;19;17;12
54587;PMS7003;40484;50.198;19.576;2023-02-23T06:46:12;19;16;11
54587;PMS7003;40484;50.198;19.576;2023-02-23T06:51:13;16;15;9
54587;PMS7003;40484;50.198;19.576;2023-02-23T06:56:15;22;20;14
54587;PMS7003;40484;50.198;19.576;2023-02-23T07:01:16;21;21;14
54587;PMS7003;40484;50.198;19.576;2023-02-23T07:06:19;24;21;14
54587;PMS7003;40484;50.198;19.576;2023-02-23T07:11:20;19;17;14
54587;PMS7003;40484;50.198;19.576;2023-02-23T07:16:47;23;21;15
54587;PMS7003;40484;50.198;19.576;2023-02-23T07:21:48;24;24;16
54587;PMS7003;40484;50.198;19.576;2023-02-23T07:26:50;19;16;11
54587;PMS7003;40484;50.198;19.576;2023-02-23T07:31:51;46;38;25
54587;PMS7003;40484;50.198;19.576;2023-02-23T07:36:53;19;19;14
54587;PMS7003;40484;50.198;19.576;2023-02-23T07:41:54;26;19;12
54587;PMS7003;40484;50.198;19.576;2023-02-23T07:46:56;20;20;13
54587;PMS7003;40484;50.198;19.576;2023-02-23T07:51:57;17;14;10
54587;PMS7003;40484;50.198;19.576;2023-02-23T07:56:59;23;21;13
54587;PMS7003;40484;50.198;19.576;2023-02-23T08:02:00;25;21;13
54587;PMS7003;40484;50.198;19.576;2023-02-23T08:07:02;26;24;14
54587;PMS7003;40484;50.198;19.576;2023-02-23T08:12:03;28;26;15
54587;PMS7003;40484;50.198;19.576;2023-02-23T08:17:05;19;19;14
54587;PMS7003;40484;50.198;19.576;2023-02-23T08:22:07;22;19;13
54587;PMS7003;40484;50.198;19.576;2023-02-23T08:27:09;26;23;15
54587;PMS7003;40484;50.198;19.576;2023-02-23T08:32:10;24;23;17
54587;PMS7003;40484;50.198;19.576;2023-02-23T08:37:12;25;23;15
54587;PMS7003;40484;50.198;19.576;2023-02-23T08:42:13;21;19;13
54587;PMS7003;40484;50.198;19.576;2023-02-23T08:47:15;23;20;16
54587;PMS7003;40484;50.198;19.576;2023-02-23T08:52:19;27;25;17
54587;PMS7003;40484;50.198;19.576;2023-02-23T08:57:21;28;25;17
54587;PMS7003;40484;50.198;19.576;2023-02-23T09:02:22;26;26;17
54587;PMS7003;40484;50.198;19.576;2023-02-23T09:07:49;28;26;16
54587;PMS7003;40484;50.198;19.576;2023-02-23T09:12:50;21;20;15
54587;PMS7003;40484;50.198;19.576;2023-02-23T09:17:52;28;26;18
54587;PMS7003;40484;50.198;19.576;2023-02-23T09:22:54;29;24;17
54587;PMS7003;40484;50.198;19.576;2023-02-23T09:27:55;30;29;16
54587;PMS7003;40484;50.198;19.576;2023-02-23T09:32:59;26;23;18
54587;PMS7003;40484;50.198;19.576;2023-02-23T09:38:01;26;24;17
54587;PMS7003;40484;50.198;19.576;2023-02-23T09:43:08;30;26;19
54587;PMS7003;40484;50.198;19.576;2023-02-23T09:58:30;32;24;16
54587;PMS7003;40484;50.198;19.576;2023-02-23T10:03:32;21;20;15
54587;PMS7003;40484;50.198;19.576;2023-02-23T10:13:59;27;26;18
54587;PMS7003;40484;50.198;19.576;2023-02-23T10:22:47;26;24;17
54587;PMS7003;40484;50.198;19.576;2023-02-23T10:27:51;29;24;16
54587;PMS7003;40484;50.198;19.576;2023-02-23T10:33:14;23;23;17
54587;PMS7003;40484;50.198;19.576;2023-02-23T10:38:22;19;17;13
54587;PMS7003;40484;50.198;19.576;2023-02-23T10:43:23;26;24;14
54587;PMS7003;40484;50.198;19.576;2023-02-23T10:48:31;25;25;18
54587;PMS7003;40484;50.198;19.576;2023-02-23T10:53:42;22;21;14
54587;PMS7003;40484;50.198;19.576;2023-02-23T10:58:43;27;24;17
54587;PMS7003;40484;50.198;19.576;2023-02-23T11:03:49;22;19;14
54587;PMS7003;40484;50.198;19.576;2023-02-23T11:08:52;21;20;13
54587;PMS7003;40484;50.198;19.576;2023-02-23T11:13:55;23;22;15
54587;PMS7003;40484;50.198;19.576;2023-02-23T11:18:58;18;18;13
54587;PMS7003;40484;50.198;19.576;2023-02-23T11:24:25;22;20;14
54587;PMS7003;40484;50.198;19.576;2023-02-23T11:29:37;22;21;14
54587;PMS7003;40484;50.198;19.576;2023-02-23T11:34:41;19;19;13
54587;PMS7003;40484;50.198;19.576;2023-02-23T11:40:02;21;20;14
54587;PMS7003;40484;50.198;19.576;2023-02-23T11:45:03;24;18;14
54587;PMS7003;40484;50.198;19.576;2023-02-23T11:50:05;14;14;10
54587;PMS7003;40484;50.198;19.576;2023-02-23T11:55:11;21;21;14
54587;PMS7003;40484;50.198;19.576;2023-02-23T12:00:19;19;18;12
54587;PMS7003;40484;50.198;19.576;2023-02-23T12:05:16;19;17;13
54587;PMS7003;40484;50.198;19.576;2023-02-23T12:10:23;25;20;13
54587;PMS7003;40484;50.198;19.576;2023-02-23T12:21:23;20;19;13
54587;PMS7003;40484;50.198;19.576;2023-02-23T12:26:23;23;22;15
54587;PMS7003;40484;50.198;19.576;2023-02-23T12:31:46;22;22;15
54587;PMS7003;40484;50.198;19.576;2023-02-23T12:36:56;22;20;12
54587;PMS7003;40484;50.198;19.576;2023-02-23T12:47:31;24;20;13
54587;PMS7003;40484;50.198;19.576;2023-02-23T12:52:35;21;20;13
54587;PMS7003;40484;50.198;19.576;2023-02-23T12:57:47;22;21;15
54587;PMS7003;40484;50.198;19.576;2023-02-23T13:03:25;23;19;14
54587;PMS7003;40484;50.198;19.576;2023-02-23T13:13:50;19;17;13
54587;PMS7003;40484;50.198;19.576;2023-02-23T13:24:28;28;25;16
54587;PMS7003;40484;50.198;19.576;2023-02-23T13:40:34;26;24;17
54587;PMS7003;40484;50.198;19.576;2023-02-23T13:56:47;25;25;16
54587;PMS7003;40484;50.198;19.576;2023-02-23T14:01:50;28;25;16
54587;PMS7003;40484;50.198;19.576;2023-02-23T14:07:13;24;23;16
54587;PMS7003;40484;50.198;19.576;2023-02-23T14:12:37;30;29;19
54587;PMS7003;40484;50.198;19.576;2023-02-23T14:17:41;26;24;17
54587;PMS7003;40484;50.198;19.576;2023-02-23T14:23:04;31;26;19
54587;PMS7003;40484;50.198;19.576;2023-02-23T14:28:22;23;19;12
54587;PMS7003;40484;50.198;19.576;2023-02-23T14:33:36;16;16;10
54587;PMS7003;40484;50.198;19.576;2023-02-23T14:44:16;19;17;11
54587;PMS7003;40484;50.198;19.576;2023-02-23T14:49:48;22;21;13
54587;PMS7003;40484;50.198;19.576;2023-02-23T14:55:07;21;19;14
54587;PMS7003;40484;50.198;19.576;2023-02-23T15:00:19;22;21;14
54587;PMS7003;40484;50.198;19.576;2023-02-23T15:05:40;24;21;13
54587;PMS7003;40484;50.198;19.576;2023-02-23T15:10:47;26;23;16
54587;PMS7003;40484;50.198;19.576;2023-02-23T15:15:46;25;24;18
54587;PMS7003;40484;50.198;19.576;2023-02-23T15:20:49;30;28;17
54587;PMS7003;40484;50.198;19.576;2023-02-23T15:25:51;34;30;19
54587;PMS7003;40484;50.198;19.576;2023-02-23T15:30:53;30;26;20
54587;PMS7003;40484;50.198;19.576;2023-02-23T15:41:44;33;30;19
54587;PMS7003;40484;50.198;19.576;2023-02-23T15:46:57;25;23;19
54587;PMS7003;40484;50.198;19.576;2023-02-23T15:52:04;26;22;13
54587;PMS7003;40484;50.198;19.576;2023-02-23T15:57:06;31;28;20
54587;PMS7003;40484;50.198;19.576;2023-02-23T16:02:19;31;27;18
54587;PMS7003;40484;50.198;19.576;2023-02-23T16:07:20;32;30;19
54587;PMS7003;40484;50.198;19.576;2023-02-23T16:12:23;39;33;21
54587;PMS7003;40484;50.198;19.576;2023-02-23T16:17:32;34;27;19
54587;PMS7003;40484;50.198;19.576;2023-02-23T16:22:31;43;34;23
54587;PMS7003;40484;50.198;19.576;2023-02-23T16:27:34;34;32;20
54587;PMS7003;40484;50.198;19.576;2023-02-23T16:32:37;33;30;21
54587;PMS7003;40484;50.198;19.576;2023-02-23T16:37:57;32;28;18
54587;PMS7003;40484;50.198;19.576;2023-02-23T16:43:23;36;31;20
54587;PMS7003;40484;50.198;19.576;2023-02-23T16:48:25;33;30;21
54587;PMS7003;40484;50.198;19.576;2023-02-23T16:53:27;39;33;21
54587;PMS7003;40484;50.198;19.576;2023-02-23T16:58:28;32;30;20
54587;PMS7003;40484;50.198;19.576;2023-02-23T17:03:32;30;27;19
54587;PMS7003;40484;50.198;19.576;2023-02-23T17:08:33;31;28;20
54587;PMS7003;40484;50.198;19.576;2023-02-23T17:13:35;29;28;17
54587;PMS7003;40484;50.198;19.576;2023-02-23T17:18:37;21;20;14
54587;PMS7003;40484;50.198;19.576;2023-02-23T17:23:39;27;26;18
54587;PMS7003;40484;50.198;19.576;2023-02-23T17:28:49;28;25;16
54587;PMS7003;40484;50.198;19.576;2023-02-23T17:33:51;38;33;21
54587;PMS7003;40484;50.198;19.576;2023-02-23T17:38:54;28;25;18
54587;PMS7003;40484;50.198;19.576;2023-02-23T17:43:59;26;23;15
54587;PMS7003;40484;50.198;19.576;2023-02-23T17:49:03;26;24;19
54587;PMS7003;40484;50.198;19.576;2023-02-23T17:54:05;22;22;16
54587;PMS7003;40484;50.198;19.576;2023-02-23T17:59:06;24;22;16
54587;PMS7003;40484;50.198;19.576;2023-02-23T18:04:08;28;24;16
54587;PMS7003;40484;50.198;19.576;2023-02-23T18:09:09;42;34;24
54587;PMS7003;40484;50.198;19.576;2023-02-23T18:14:39;28;21;10
54587;PMS7003;40484;50.198;19.576;2023-02-23T18:19:42;34;30;21
54587;PMS7003;40484;50.198;19.576;2023-02-23T18:24:44;47;39;25
54587;PMS7003;40484;50.198;19.576;2023-02-23T18:29:45;68;51;32
54587;PMS7003;40484;50.198;19.576;2023-02-23T18:34:47;72;58;36
54587;PMS7003;40484;50.198;19.576;2023-02-23T18:39:50;71;56;35
54587;PMS7003;40484;50.198;19.576;2023-02-23T18:44:52;71;56;35
54587;PMS7003;40484;50.198;19.576;2023-02-23T18:49:54;76;60;35
54587;PMS7003;40484;50.198;19.576;2023-02-23T18:54:57;71;52;33
54587;PMS7003;40484;50.198;19.576;2023-02-23T18:59:59;105;87;50
54587;PMS7003;40484;50.198;19.576;2023-02-23T19:05:00;78;68;41
54587;PMS7003;40484;50.198;19.576;2023-02-23T19:10:02;72;56;33
54587;PMS7003;40484;50.198;19.576;2023-02-23T19:15:06;67;54;33
54587;PMS7003;40484;50.198;19.576;2023-02-23T19:20:09;70;54;32
54587;PMS7003;40484;50.198;19.576;2023-02-23T19:25:14;70;52;32
54587;PMS7003;40484;50.198;19.576;2023-02-23T19:30:16;66;53;34
54587;PMS7003;40484;50.198;19.576;2023-02-23T19:35:17;68;53;35
54587;PMS7003;40484;50.198;19.576;2023-02-23T19:40:20;77;64;37
54587;PMS7003;40484;50.198;19.576;2023-02-23T19:45:25;82;65;40
54587;PMS7003;40484;50.198;19.576;2023-02-23T19:50:51;73;60;37
54587;PMS7003;40484;50.198;19.576;2023-02-23T19:55:58;72;55;36
54587;PMS7003;40484;50.198;19.576;2023-02-23T20:01:04;64;49;32
54587;PMS7003;40484;50.198;19.576;2023-02-23T20:06:08;50;42;28
54587;PMS7003;40484;50.198;19.576;2023-02-23T20:11:14;57;46;29
54587;PMS7003;40484;50.198;19.576;2023-02-23T20:16:15;58;47;29
54587;PMS7003;40484;50.198;19.576;2023-02-23T20:21:18;58;43;28
54587;PMS7003;40484;50.198;19.576;2023-02-23T20:26:27;55;43;26
54587;PMS7003;40484;50.198;19.576;2023-02-23T20:31:27;60;47;29
54587;PMS7003;40484;50.198;19.576;2023-02-23T20:36:31;60;47;29
54587;PMS7003;40484;50.198;19.576;2023-02-23T20:41:32;57;45;28
54587;PMS7003;40484;50.198;19.576;2023-02-23T20:46:34;60;46;28
54587;PMS7003;40484;50.198;19.576;2023-02-23T20:51:36;60;47;28
54587;PMS7003;40484;50.198;19.576;2023-02-23T20:56:42;66;48;28
54587;PMS7003;40484;50.198;19.576;2023-02-23T21:01:44;68;50;31
54587;PMS7003;40484;50.198;19.576;2023-02-23T21:06:45;50;43;25
54587;PMS7003;40484;50.198;19.576;2023-02-23T21:11:47;55;45;29
54587;PMS7003;40484;50.198;19.576;2023-02-23T21:17:14;63;50;31
54587;PMS7003;40484;50.198;19.576;2023-02-23T21:22:16;65;49;31
54587;PMS7003;40484;50.198;19.576;2023-02-23T21:27:18;72;54;33
54587;PMS7003;40484;50.198;19.576;2023-02-23T21:32:20;91;80;45
54587;PMS7003;40484;50.198;19.576;2023-02-23T21:37:22;85;75;40
54587;PMS7003;40484;50.198;19.576;2023-02-23T21:42:24;87;72;43
54587;PMS7003;40484;50.198;19.576;2023-02-23T21:47:27;83;66;38
54587;PMS7003;40484;50.198;19.576;2023-02-23T21:52:28;68;53;33
54587;PMS7003;40484;50.198;19.576;2023-02-23T21:57:31;59;46;29
54587;PMS7003;40484;50.198;19.576;2023-02-23T22:02:34;64;49;30
54587;PMS7003;40484;50.198;19.576;2023-02-23T22:07:38;58;47;31
54587;PMS7003;40484;50.198;19.576;2023-02-23T22:12:40;65;52;33
54587;PMS7003;40484;50.198;19.576;2023-02-23T22:17:42;61;48;29
54587;PMS7003;40484;50.198;19.576;2023-02-23T22:22:43;57;44;28
54587;PMS7003;40484;50.198;19.576;2023-02-23T22:27:45;52;43;28
54587;PMS7003;40484;50.198;19.576;2023-02-23T22:32:47;52;44;28
54587;PMS7003;40484;50.198;19.576;2023-02-23T22:37:49;46;38;26
54587;PMS7003;40484;50.198;19.576;2023-02-23T22:42:50;61;46;30
54587;PMS7003;40484;50.198;19.576;2023-02-23T22:47:54;57;46;29
54587;PMS7003;40484;50.198;19.576;2023-02-23T22:52:57;53;43;28
54587;PMS7003;40484;50.198;19.576;2023-02-23T22:58:24;45;37;24
54587;PMS7003;40484;50.198;19.576;2023-02-23T23:03:30;51;41;26
54587;PMS7003;40484;50.198;19.576;2023-02-23T23:08:35;47;40;27
54587;PMS7003;40484;50.198;19.576;2023-02-23T23:13:38;49;40;24
54587;PMS7003;40484;50.198;19.576;2023-02-23T23:18:49;56;42;26
54587;PMS7003;40484;50.198;19.576;2023-02-23T23:23:52;49;39;24
54587;PMS7003;40484;50.198;19.576;2023-02-23T23:28:52;49;39;26
54587;PMS7003;40484;50.198;19.576;2023-02-23T23:33:56;59;47;28
54587;PMS7003;40484;50.198;19.576;2023-02-23T23:39:02;62;50;30
54587;PMS7003;40484;50.198;19.576;2023-02-23T23:44:05;57;47;30
54587;PMS7003;40484;50.198;19.576;2023-02-23T23:49:12;56;45;30
54587;PMS7003;40484;50.198;19.576;2023-02-23T23:54:16;54;43;28
54587;PMS7003;40484;50.198;19.576;2023-02-23T23:59:23;53;43;28
